createdAt,value
2023-04-03T00:02:30.642Z,1.45
2023-04-03T00:07:35.680Z,1.45
2023-04-03T00:12:38.788Z,1.67
2023-04-03T00:17:42.043Z,1.85
2023-04-03T00:22:46.868Z,1.60
2023-04-03T00:27:50.001Z,2.25
2023-04-03T00:32:53.844Z,1.50
2023-04-03T00:37:58.960Z,1.60
2023-04-03T00:43:02.029Z,2.35
2023-04-03T00:48:07.393Z,1.83
2023-04-03T00:53:14.097Z,1.60
2023-04-03T00:58:18.281Z,1.48
2023-04-03T01:03:21.500Z,2.13
2023-04-03T01:08:25.951Z,1.73
2023-04-03T01:13:30.921Z,1.75
2023-04-03T01:18:34.520Z,1.60
2023-04-03T01:23:58.354Z,1.50
2023-04-03T01:29:02.857Z,1.77
2023-04-03T01:34:07.489Z,2.10
2023-04-03T01:39:10.756Z,1.40
2023-04-03T01:44:14.311Z,1.88
2023-04-03T01:49:18.841Z,1.50
2023-04-03T01:54:22.268Z,1.70
2023-04-03T01:59:25.587Z,1.58
2023-04-03T02:04:31.056Z,2.00
2023-04-03T02:09:34.525Z,2.00
2023-04-03T02:14:37.636Z,1.58
2023-04-03T02:19:42.174Z,2.10
2023-04-03T02:24:45.734Z,1.63
2023-04-03T02:29:48.869Z,1.63
2023-04-03T02:34:53.652Z,1.65
2023-04-03T02:39:56.903Z,1.80
2023-04-03T02:45:01.444Z,2.00
2023-04-03T02:50:06.560Z,1.80
2023-04-03T02:55:10.369Z,1.40
2023-04-03T03:00:14.097Z,1.90
2023-04-03T03:05:19.233Z,1.98
2023-04-03T03:10:22.630Z,2.08
2023-04-03T03:15:25.900Z,1.95
2023-04-03T03:20:30.377Z,1.95
2023-04-03T03:25:35.081Z,2.10
2023-04-03T03:30:38.371Z,1.88
2023-04-03T03:35:43.024Z,1.85
2023-04-03T03:40:46.307Z,2.50
2023-04-03T03:45:51.962Z,2.20
2023-04-03T03:50:56.666Z,2.20
2023-04-03T03:56:03.880Z,2.13
2023-04-03T04:01:08.892Z,2.20
2023-04-03T04:06:19.553Z,2.35
2023-04-03T04:11:23.236Z,1.83
2023-04-03T04:16:27.858Z,2.15
2023-04-03T04:21:34.459Z,2.60
2023-04-03T04:26:37.808Z,2.35
2023-04-03T04:31:41.812Z,2.85
2023-04-03T04:36:46.732Z,2.22
2023-04-03T04:41:50.102Z,2.55
2023-04-03T04:46:53.335Z,3.05
2023-04-03T04:51:58.930Z,2.45
2023-04-03T04:57:06.475Z,2.13
2023-04-03T05:02:10.624Z,2.60
2023-04-03T05:07:17.382Z,2.85
2023-04-03T05:12:21.230Z,2.60
2023-04-03T05:17:30.473Z,1.88
2023-04-03T05:22:36.645Z,2.30
2023-04-03T05:27:43.986Z,2.10
2023-04-03T05:32:47.258Z,2.38
2023-04-03T05:37:56.765Z,2.22
2023-04-03T05:43:00.532Z,2.63
2023-04-03T05:48:07.493Z,2.28
2023-04-03T05:53:14.563Z,2.58
2023-04-03T05:58:17.766Z,2.08
2023-04-03T06:03:23.539Z,1.77
2023-04-03T06:08:28.591Z,2.13
2023-04-03T06:13:31.756Z,2.50
2023-04-03T06:18:35.410Z,2.28
2023-04-03T06:23:40.177Z,4.07
2023-04-03T06:28:43.627Z,2.10
2023-04-03T06:33:46.743Z,1.92
2023-04-03T06:38:51.227Z,2.08
2023-04-03T06:43:54.517Z,1.88
2023-04-03T06:48:57.601Z,2.20
2023-04-03T06:54:02.390Z,2.30
2023-04-03T06:59:05.680Z,2.53
2023-04-03T07:04:09.202Z,1.85
2023-04-03T07:09:13.720Z,1.85
2023-04-03T07:14:16.810Z,1.83
2023-04-03T07:19:20.074Z,2.33
2023-04-03T07:24:24.713Z,1.77
2023-04-03T07:29:27.813Z,1.98
2023-04-03T07:34:31.668Z,1.80
2023-04-03T07:39:36.218Z,1.60
2023-04-03T07:44:39.353Z,2.10
2023-04-03T07:49:42.570Z,1.98
2023-04-03T07:54:47.163Z,2.03
2023-04-03T07:59:50.503Z,1.95
2023-04-03T08:04:53.762Z,1.60
2023-04-03T08:09:58.355Z,1.42
2023-04-03T08:15:02.041Z,1.40
2023-04-03T08:20:06.521Z,1.35
2023-04-03T08:25:11.582Z,1.95
2023-04-03T08:30:15.416Z,1.63
2023-04-03T08:35:18.590Z,1.77
2023-04-03T08:40:23.085Z,1.20
2023-04-03T08:45:29.524Z,1.23
2023-04-03T08:50:36.221Z,1.25
2023-04-03T08:55:42.560Z,1.02
2023-04-03T09:00:47.468Z,0.93
2023-04-03T09:05:52.979Z,0.93
2023-04-03T09:11:04.970Z,1.08
2023-04-03T09:16:14.700Z,0.85
2023-04-03T09:21:22.061Z,2.38
2023-04-03T09:26:28.078Z,0.80
2023-04-03T09:31:33.035Z,0.73
2023-04-03T09:36:43.527Z,1.00
2023-04-03T09:41:58.755Z,0.60
2023-04-03T09:47:01.914Z,0.70
2023-04-03T09:52:20.011Z,0.98
2023-04-03T09:57:24.610Z,0.88
2023-04-03T10:02:33.985Z,0.70
2023-04-03T10:07:38.541Z,0.70
2023-04-03T10:12:43.184Z,0.65
2023-04-03T10:17:54.716Z,0.60
2023-04-03T10:23:02.368Z,0.77
2023-04-03T10:28:08.627Z,1.73
2023-04-03T10:33:18.356Z,0.57
2023-04-03T10:38:25.195Z,0.63
2023-04-03T10:43:34.713Z,0.90
2023-04-03T10:48:52.676Z,0.88
2023-04-03T10:53:59.049Z,1.05
2023-04-03T10:59:10.030Z,0.93
2023-04-03T11:04:13.637Z,1.50
2023-04-03T11:09:20.542Z,0.60
2023-04-03T11:14:28.069Z,1.00
2023-04-03T11:19:36.289Z,0.90
2023-04-03T11:24:42.229Z,0.63
2023-04-03T11:29:48.048Z,0.65
2023-04-03T11:34:52.203Z,0.85
2023-04-03T11:39:58.054Z,0.80
2023-04-03T11:45:27.844Z,1.15
2023-04-03T11:50:48.807Z,0.90
2023-04-03T11:55:56.410Z,0.63
2023-04-03T12:01:11.142Z,0.98
2023-04-03T12:06:41.827Z,0.90
2023-04-03T12:11:45.131Z,0.57
2023-04-03T12:16:49.878Z,1.13
2023-04-03T12:22:11.411Z,1.10
2023-04-03T12:27:35.439Z,1.50
2023-04-03T12:32:46.884Z,0.85
2023-04-03T12:38:07.607Z,0.70
2023-04-03T12:43:19.434Z,0.90
2023-04-03T12:48:27.075Z,1.10
2023-04-03T12:53:33.296Z,0.80
2023-04-03T12:58:36.445Z,1.05
2023-04-03T13:03:41.830Z,1.00
2023-04-03T13:08:50.602Z,1.20
2023-04-03T13:13:57.751Z,0.88
2023-04-03T13:19:02.238Z,1.15
2023-04-03T13:24:15.316Z,1.38
2023-04-03T13:29:30.024Z,1.00
2023-04-03T13:34:40.333Z,0.98
2023-04-03T13:39:52.744Z,1.60
2023-04-03T13:45:10.896Z,1.20
2023-04-03T13:50:19.367Z,1.13
2023-04-03T13:55:26.197Z,1.00
2023-04-03T14:00:36.084Z,1.02
2023-04-03T14:05:40.956Z,1.35
2023-04-03T14:10:44.090Z,1.20
2023-04-03T14:15:48.453Z,1.30
2023-04-03T14:20:53.009Z,1.10
2023-04-03T14:25:57.055Z,1.25
2023-04-03T14:31:00.617Z,1.27
2023-04-03T14:36:08.143Z,1.70
2023-04-03T14:41:16.666Z,1.02
2023-04-03T14:46:21.800Z,1.48
2023-04-03T14:51:27.158Z,1.23
2023-04-03T14:56:31.094Z,1.10
2023-04-03T15:01:34.214Z,1.30
2023-04-03T15:06:38.761Z,1.25
2023-04-03T15:11:41.890Z,1.58
2023-04-03T15:16:45.338Z,1.75
2023-04-03T15:21:49.835Z,1.40
2023-04-03T15:26:53.038Z,1.10
2023-04-03T15:31:56.349Z,1.50
2023-04-03T15:37:00.991Z,1.05
2023-04-03T15:42:07.188Z,1.60
2023-04-03T15:47:10.632Z,1.58
2023-04-03T15:52:15.199Z,1.42
2023-04-03T15:57:18.329Z,1.30
2023-04-03T16:02:22.312Z,1.60
2023-04-03T16:07:27.092Z,1.95
2023-04-03T16:12:30.323Z,1.27
2023-04-03T16:17:33.784Z,1.50
2023-04-03T16:22:38.943Z,1.77
2023-04-03T16:27:42.080Z,1.55
2023-04-03T16:32:45.444Z,1.20
2023-04-03T16:37:50.065Z,1.30
2023-04-03T16:42:53.141Z,2.90
2023-04-03T16:47:56.231Z,1.63
2023-04-03T16:53:00.809Z,1.48
2023-04-03T16:58:03.922Z,1.60
2023-04-03T17:03:07.059Z,1.75
2023-04-03T17:08:11.645Z,1.50
2023-04-03T17:13:14.790Z,1.45
2023-04-03T17:18:17.877Z,1.65
2023-04-03T17:23:22.482Z,0.90
2023-04-03T17:28:28.681Z,1.30
2023-04-03T17:33:32.086Z,1.27
2023-04-03T17:38:36.614Z,2.28
2023-04-03T17:43:39.723Z,1.27
2023-04-03T17:48:42.944Z,1.20
2023-04-03T17:53:47.790Z,1.27
2023-04-03T17:58:51.777Z,1.38
2023-04-03T18:03:56.155Z,1.30
2023-04-03T18:09:04.544Z,1.60
2023-04-03T18:14:08.622Z,1.60
2023-04-03T18:19:23.019Z,1.58
2023-04-03T18:24:28.671Z,1.40
2023-04-03T18:29:32.699Z,1.48
2023-04-03T18:34:35.975Z,1.40
2023-04-03T18:39:40.467Z,2.10
2023-04-03T18:44:44.415Z,1.60
2023-04-03T18:49:47.989Z,2.10
2023-04-03T18:54:52.486Z,1.73
2023-04-03T18:59:55.821Z,1.63
2023-04-03T19:04:58.962Z,1.55
2023-04-03T19:10:03.489Z,1.20
2023-04-03T19:15:07.316Z,1.77
2023-04-03T19:20:11.321Z,1.67
2023-04-03T19:25:15.871Z,1.95
2023-04-03T19:30:18.946Z,1.88
2023-04-03T19:35:22.113Z,1.85
2023-04-03T19:40:29.005Z,2.17
2023-04-03T19:45:33.083Z,1.63
2023-04-03T19:50:36.670Z,1.65
2023-04-03T19:55:41.351Z,1.63
2023-04-03T20:00:44.615Z,2.47
2023-04-03T20:05:47.888Z,1.90
2023-04-03T20:10:52.342Z,1.80
2023-04-03T20:15:56.093Z,1.48
2023-04-03T20:21:00.536Z,1.85
2023-04-03T20:26:10.920Z,1.92
2023-04-03T20:31:19.104Z,2.13
2023-04-03T20:36:23.610Z,1.98
2023-04-03T20:41:28.165Z,1.65
2023-04-03T20:46:48.996Z,1.88
2023-04-03T20:51:54.397Z,1.95
2023-04-03T20:56:59.001Z,1.98
2023-04-03T21:02:02.273Z,2.00
2023-04-03T21:07:23.867Z,2.17
2023-04-03T21:12:45.807Z,1.83
2023-04-03T21:18:03.655Z,1.42
2023-04-03T21:23:07.094Z,2.20
2023-04-03T21:28:10.276Z,1.80
2023-04-03T21:33:14.769Z,2.08
2023-04-03T21:38:18.070Z,1.70
2023-04-03T21:43:21.218Z,1.63
2023-04-03T21:48:25.868Z,1.83
2023-04-03T21:53:31.699Z,1.90
2023-04-03T21:58:35.042Z,2.13
2023-04-03T22:03:39.595Z,2.13
2023-04-03T22:08:42.845Z,2.10
2023-04-03T22:13:46.159Z,1.95
2023-04-03T22:18:51.227Z,1.90
2023-04-03T22:23:54.903Z,1.73
2023-04-03T22:28:58.296Z,1.90
2023-04-03T22:34:04.233Z,1.92
2023-04-03T22:39:07.295Z,1.67
2023-04-03T22:44:10.786Z,2.22
2023-04-03T22:49:15.379Z,2.08
2023-04-03T22:54:18.440Z,1.90
2023-04-03T22:59:21.610Z,2.03
2023-04-03T23:04:26.772Z,2.03
2023-04-03T23:09:29.912Z,2.05
2023-04-03T23:14:32.979Z,2.13
2023-04-03T23:19:37.488Z,2.13
2023-04-03T23:24:40.628Z,2.45
2023-04-03T23:29:44.052Z,2.03
2023-04-03T23:34:48.501Z,2.05
2023-04-03T23:39:51.591Z,2.35
2023-04-03T23:44:54.769Z,2.20
2023-04-03T23:49:59.390Z,2.55
2023-04-03T23:55:03.277Z,2.00
